Vannes-Meucon Airport

Airport
ICAO code: 
LFRV
IATA Code: 
VNE
Summary
ICAO Region: 
EUR
Territory: 
Location: 
, Bretagne
Serving: 
Vannes
Elevation: 
446 ft
Coordinates: 
Aerial View: 
47° 43' 23.891" N, 2° 43' 6.82" W
Metar
Observation
LFRV 020330Z AUTO 35010KT CAVOK 05/03 Q1011
Station
Vannes-Meucon
Date/Time
2021-12-02 03:30:00
Wind direction
350°
Wind speed
10 kts
Lowest cloud amount
clouds and visibility OK
Temperature
5°C
Dew point
3°C
Humidity
86%
QNH
1011 hPa
Weather condition
n/a

Runways

Designator Length Width Surface Rops
8/26 1025 60 GRS No/No
4/22 1530 45 ASP No/No
Airport map: 
Aerial View: 

SKYbrary Partners:

Safety knowledge contributed by: